TimeMDT,TemperatureF,Dew PointF,Humidity,Sea Level PressureIn,VisibilityMPH,Wind Direction,Wind SpeedMPH,Gust SpeedMPH,PrecipitationIn,Events,Conditions,WindDirDegrees,DateUTC
12:53 AM,73.9,30.9,21,29.67,10.0,WSW,8.1,-,N/A,,Clear,240,2013-05-14 06:53:00
1:53 AM,75.9,30.0,19,29.65,10.0,Calm,Calm,-,N/A,,Clear,0,2013-05-14 07:53:00
2:53 AM,73.0,30.9,21,29.66,10.0,WSW,15.0,-,N/A,,Clear,250,2013-05-14 08:53:00
3:53 AM,64.0,37.0,37,29.72,10.0,NNW,23.0,40.3,N/A,,Clear,330,2013-05-14 09:53:00
4:53 AM,57.9,42.1,56,29.76,10.0,NNW,23.0,28.8,N/A,,Clear,340,2013-05-14 10:53:00
5:53 AM,55.9,43.0,62,29.80,10.0,North,13.8,24.2,N/A,,Clear,350,2013-05-14 11:53:00
6:53 AM,57.9,44.1,60,29.83,10.0,NNW,9.2,-,N/A,,Clear,330,2013-05-14 12:53:00
7:53 AM,62.1,44.1,52,29.84,10.0,North,3.5,-,N/A,,Clear,10,2013-05-14 13:53:00
8:53 AM,63.0,44.1,50,29.87,10.0,ESE,3.5,-,N/A,,Clear,120,2013-05-14 14:53:00
9:53 AM,64.9,44.1,47,29.87,10.0,ESE,6.9,-,N/A,,Clear,120,2013-05-14 15:53:00
10:53 AM,66.9,45.0,45,29.83,10.0,East,8.1,-,N/A,,Clear,100,2013-05-14 16:53:00
11:53 AM,70.0,45.0,41,29.80,10.0,East,8.1,-,N/A,,Clear,100,2013-05-14 17:53:00
12:53 PM,73.0,45.0,37,29.79,10.0,Variable,3.5,-,N/A,,Clear,0,2013-05-14 18:53:00
1:53 PM,73.9,44.1,34,29.75,10.0,SE,5.8,-,N/A,,Clear,130,2013-05-14 19:53:00
2:53 PM,75.0,44.1,33,29.74,10.0,Variable,4.6,-,N/A,,Clear,0,2013-05-14 20:53:00
3:53 PM,75.9,44.1,32,29.73,10.0,NW,4.6,-,N/A,,Clear,310,2013-05-14 21:53:00
4:53 PM,77.0,44.1,31,29.72,10.0,NNE,4.6,-,N/A,,Clear,30,2013-05-14 22:53:00
5:53 PM,77.0,45.0,32,29.72,10.0,North,9.2,-,N/A,,Clear,10,2013-05-14 23:53:00
6:53 PM,72.0,46.0,40,29.73,10.0,NNW,8.1,-,N/A,,Clear,340,2013-05-15 00:53:00
7:53 PM,66.9,46.9,49,29.75,10.0,NNW,5.8,-,N/A,,Clear,340,2013-05-15 01:53:00
8:53 PM,64.0,43.0,46,29.80,10.0,NNE,9.2,-,N/A,,Clear,20,2013-05-15 02:53:00
9:53 PM,61.0,37.0,41,29.86,10.0,NNE,9.2,-,N/A,,Scattered Clouds,20,2013-05-15 03:53:00
10:53 PM,60.1,34.0,38,29.88,10.0,North,4.6,-,N/A,,Overcast,10,2013-05-15 04:53:00
11:53 PM,55.9,32.0,40,29.88,10.0,WNW,3.5,-,N/A,,Clear,300,2013-05-15 05:53:00